Marcellus, MI

9:29 AM EDT on March 30, 2017 (GMT -0400)
Corey Lake | | Change Station

Elev 875 ft 41.93 °N, 85.73 °W | Updated 34 seconds ago

Rain
Rain
38.2 °F
Feels Like 32 °F
N
9.0
Wind Variable Wind from ENE

Today
High -- | Low -- °F
--% Chance of Precip.
Yesterday
High -- | Low -- °F
Precip. -- in
Pressure 29.92 in
Visibility 10.0 miles
Clouds Scattered Clouds 1000 ft
Overcast 4100 ft
Windchill 32 °F
Dew Point 37 °F
Humidity 96%
Rainfall 0.97 in
Snow Depth Not available.
7:28 AM 8:07 PM
Waxing Crescent, 8% visible
METAR KHAI 301315Z AUTO 09012G19KT 10SM -RA SCT010 OVC041 04/03 A2992 RMK AO2 T00410027
Pressure 29.92 in
Visibility 10.0 miles
Clouds Scattered Clouds 1000 ft
Overcast 4100 ft
Windchill 32 °F
Dew Point 37 °F
Humidity 96%
Rainfall 0.97 in
Snow Depth Not available.
7:28 AM 8:07 PM
Waxing Crescent, 8% visible
METAR KHAI 301315Z AUTO 09012G19KT 10SM -RA SCT010 OVC041 04/03 A2992 RMK AO2 T00410027

Get Severe Weather Alerts

Thanks for signing up!

Be on the lookout for a verification email in your inbox.

You'll start receiving the daily forecast at 8 AM.

×

10-Day Weather Forecast

Almanac

Astronomy

Mar. 30, 2017 Rise Set
Actual Time
Civil Twilight
Nautical Twilight
Astronomical Twilight
Moon
Length of Visible Light
Length of Day
Tomorrow will be .
, % of the Moon is Illuminated

Today's Extremes

State Highs State Lows

Community

WunderPhotos

Upload Photos

1,962,540 photos uploaded!

WunderBlog® & News

Nearby

Air Quality

  Air Quality AQ Index Pollutant
Not available.

Snow Depth

Station Depth Elevation

Earthquake Activity

City Distance Mag. Time & Date
Minimum magnitude displayed is 2.5.

Earthquake Activity

City Distance Mag. Time & Date
Minimum magnitude displayed is 2.5.

Coastal Water Temperatures

Place Temperature

Stations

Nearby Weather Stations

Station Location Temp. Windchill Dew Point Humidity Wind Precip. Elev Updated Type
                   

Watches & Warnings

There are currently no watches in effect.